Arnold, Kansas
Current Conditions -  °F | °C
As of 6:55 AM on Friday 24 Oct 2014 (Local Time) from KHYS Reporting Station
Clear Clear  
Wind Chill: 55°   Ceiling: Unl
Heat Index: 55°   Visibility: 3mi
Dew Point: 48°   Wind: 6mph
Humidity: 77%   Direction: 240°WSW
Pressure: 30.01"   Gusts: NA
Location:  38.64°N, 100.05°W
Report Text: KHYS 241155Z AUTO 24005KT 3SM CLR 13/09 A3001 RMK AO1 10140 20120 57003
Loading
Personal Weather Stations






























Interactive Weather Map
Tropical Storm Tracking
New forecast layout! Learn more

10-Day Weather Forecast

Advertisements
Track Severe Weather on mobile